sensor_id;sensor_type;location;lat;lon;timestamp;temperature;humidity
9466;DHT22;4771;48.726;9.006;2022-09-21T00:01:56;7.00;99.90
9466;DHT22;4771;48.726;9.006;2022-09-21T00:04:23;7.00;99.90
9466;DHT22;4771;48.726;9.006;2022-09-21T00:06:50;7.00;99.90
9466;DHT22;4771;48.726;9.006;2022-09-21T00:09:16;6.90;99.90
9466;DHT22;4771;48.726;9.006;2022-09-21T00:11:45;6.90;99.90
9466;DHT22;4771;48.726;9.006;2022-09-21T00:14:13;6.80;99.90
9466;DHT22;4771;48.726;9.006;2022-09-21T00:16:41;6.80;99.90
9466;DHT22;4771;48.726;9.006;2022-09-21T00:19:08;6.90;99.90
9466;DHT22;4771;48.726;9.006;2022-09-21T00:21:36;6.90;99.90
9466;DHT22;4771;48.726;9.006;2022-09-21T00:24:04;7.00;99.90
9466;DHT22;4771;48.726;9.006;2022-09-21T00:26:31;7.10;99.90
9466;DHT22;4771;48.726;9.006;2022-09-21T00:29:01;7.00;99.90
9466;DHT22;4771;48.726;9.006;2022-09-21T00:31:29;6.90;99.90
9466;DHT22;4771;48.726;9.006;2022-09-21T00:33:57;6.80;99.90
9466;DHT22;4771;48.726;9.006;2022-09-21T00:36:25;6.80;99.90
9466;DHT22;4771;48.726;9.006;2022-09-21T00:38:54;6.70;99.90
9466;DHT22;4771;48.726;9.006;2022-09-21T00:41:23;6.60;99.90
9466;DHT22;4771;48.726;9.006;2022-09-21T00:44:18;6.60;99.90
9466;DHT22;4771;48.726;9.006;2022-09-21T00:46:48;6.60;99.90
9466;DHT22;4771;48.726;9.006;2022-09-21T00:49:15;6.60;99.90
9466;DHT22;4771;48.726;9.006;2022-09-21T00:51:43;6.60;99.90
9466;DHT22;4771;48.726;9.006;2022-09-21T00:54:14;6.60;99.90
9466;DHT22;4771;48.726;9.006;2022-09-21T00:56:43;6.60;99.90
9466;DHT22;4771;48.726;9.006;2022-09-21T00:59:11;6.60;99.90
9466;DHT22;4771;48.726;9.006;2022-09-21T01:01:41;6.60;99.90
9466;DHT22;4771;48.726;9.006;2022-09-21T01:04:08;6.60;99.90
9466;DHT22;4771;48.726;9.006;2022-09-21T01:06:37;6.70;99.90
9466;DHT22;4771;48.726;9.006;2022-09-21T01:09:04;6.70;99.90
9466;DHT22;4771;48.726;9.006;2022-09-21T01:11:33;6.70;99.90
9466;DHT22;4771;48.726;9.006;2022-09-21T01:14:18;6.60;99.90
9466;DHT22;4771;48.726;9.006;2022-09-21T01:16:52;6.60;99.90
9466;DHT22;4771;48.726;9.006;2022-09-21T01:19:44;6.40;99.90
9466;DHT22;4771;48.726;9.006;2022-09-21T01:22:20;6.30;99.90
9466;DHT22;4771;48.726;9.006;2022-09-21T01:25:01;6.30;99.90
9466;DHT22;4771;48.726;9.006;2022-09-21T01:27:51;6.30;99.90
9466;DHT22;4771;48.726;9.006;2022-09-21T01:30:22;6.40;99.90
9466;DHT22;4771;48.726;9.006;2022-09-21T01:32:54;6.50;99.90
9466;DHT22;4771;48.726;9.006;2022-09-21T01:35:24;6.50;99.90
9466;DHT22;4771;48.726;9.006;2022-09-21T01:37:56;6.50;99.90
9466;DHT22;4771;48.726;9.006;2022-09-21T01:40:28;6.30;99.90
9466;DHT22;4771;48.726;9.006;2022-09-21T01:43:00;6.30;99.90
9466;DHT22;4771;48.726;9.006;2022-09-21T01:45:30;6.20;99.90
9466;DHT22;4771;48.726;9.006;2022-09-21T01:47:59;6.20;99.90
9466;DHT22;4771;48.726;9.006;2022-09-21T01:50:32;6.10;99.90
9466;DHT22;4771;48.726;9.006;2022-09-21T01:53:04;6.20;99.90
9466;DHT22;4771;48.726;9.006;2022-09-21T01:55:38;6.20;99.90
9466;DHT22;4771;48.726;9.006;2022-09-21T01:58:12;6.20;99.90
9466;DHT22;4771;48.726;9.006;2022-09-21T02:00:46;6.20;99.90
9466;DHT22;4771;48.726;9.006;2022-09-21T02:03:21;6.10;99.90
9466;DHT22;4771;48.726;9.006;2022-09-21T02:05:51;6.10;99.90
9466;DHT22;4771;48.726;9.006;2022-09-21T02:08:18;6.10;99.90
9466;DHT22;4771;48.726;9.006;2022-09-21T02:10:48;6.00;99.90
9466;DHT22;4771;48.726;9.006;2022-09-21T02:13:16;6.00;99.90
9466;DHT22;4771;48.726;9.006;2022-09-21T02:15:53;6.00;99.90
9466;DHT22;4771;48.726;9.006;2022-09-21T02:18:34;5.90;99.90
9466;DHT22;4771;48.726;9.006;2022-09-21T02:21:07;5.90;99.90
9466;DHT22;4771;48.726;9.006;2022-09-21T02:23:43;5.80;99.90
9466;DHT22;4771;48.726;9.006;2022-09-21T02:26:14;5.90;99.90
9466;DHT22;4771;48.726;9.006;2022-09-21T02:28:48;5.90;99.90
9466;DHT22;4771;48.726;9.006;2022-09-21T02:31:28;6.00;99.90
9466;DHT22;4771;48.726;9.006;2022-09-21T02:33:59;6.00;99.90
9466;DHT22;4771;48.726;9.006;2022-09-21T02:36:31;6.00;99.90
9466;DHT22;4771;48.726;9.006;2022-09-21T02:39:04;6.00;99.90
9466;DHT22;4771;48.726;9.006;2022-09-21T02:41:37;6.10;99.90
9466;DHT22;4771;48.726;9.006;2022-09-21T02:44:08;6.00;99.90
9466;DHT22;4771;48.726;9.006;2022-09-21T02:46:41;6.00;99.90
9466;DHT22;4771;48.726;9.006;2022-09-21T02:49:15;6.00;99.90
9466;DHT22;4771;48.726;9.006;2022-09-21T02:51:46;6.00;99.90
9466;DHT22;4771;48.726;9.006;2022-09-21T02:54:15;5.90;99.90
9466;DHT22;4771;48.726;9.006;2022-09-21T02:56:46;5.80;99.90
9466;DHT22;4771;48.726;9.006;2022-09-21T02:59:14;5.80;99.90
9466;DHT22;4771;48.726;9.006;2022-09-21T03:01:43;5.80;99.90
9466;DHT22;4771;48.726;9.006;2022-09-21T03:04:10;5.70;99.90
9466;DHT22;4771;48.726;9.006;2022-09-21T03:06:37;5.70;99.90
9466;DHT22;4771;48.726;9.006;2022-09-21T03:09:05;5.70;99.90
9466;DHT22;4771;48.726;9.006;2022-09-21T03:11:32;5.60;99.90
9466;DHT22;4771;48.726;9.006;2022-09-21T03:14:00;5.60;99.90
9466;DHT22;4771;48.726;9.006;2022-09-21T03:16:29;5.60;99.90
9466;DHT22;4771;48.726;9.006;2022-09-21T03:18:58;5.50;99.90
9466;DHT22;4771;48.726;9.006;2022-09-21T03:21:25;5.50;99.90
9466;DHT22;4771;48.726;9.006;2022-09-21T03:23:52;5.50;99.90
9466;DHT22;4771;48.726;9.006;2022-09-21T03:26:19;5.50;99.90
9466;DHT22;4771;48.726;9.006;2022-09-21T03:28:46;5.50;99.90
9466;DHT22;4771;48.726;9.006;2022-09-21T03:31:13;5.50;99.90
9466;DHT22;4771;48.726;9.006;2022-09-21T03:33:40;5.50;99.90
9466;DHT22;4771;48.726;9.006;2022-09-21T03:36:09;5.60;99.90
9466;DHT22;4771;48.726;9.006;2022-09-21T03:38:36;5.60;99.90
9466;DHT22;4771;48.726;9.006;2022-09-21T03:41:03;5.60;99.90
9466;DHT22;4771;48.726;9.006;2022-09-21T03:43:30;5.50;99.90
9466;DHT22;4771;48.726;9.006;2022-09-21T03:45:57;5.60;99.90
9466;DHT22;4771;48.726;9.006;2022-09-21T03:48:24;5.60;99.90
9466;DHT22;4771;48.726;9.006;2022-09-21T03:50:51;5.50;99.90
9466;DHT22;4771;48.726;9.006;2022-09-21T03:53:20;5.50;99.90
9466;DHT22;4771;48.726;9.006;2022-09-21T03:55:46;5.40;99.90
9466;DHT22;4771;48.726;9.006;2022-09-21T03:58:13;5.30;99.90
9466;DHT22;4771;48.726;9.006;2022-09-21T04:00:40;5.20;99.90
9466;DHT22;4771;48.726;9.006;2022-09-21T04:03:08;5.20;99.90
9466;DHT22;4771;48.726;9.006;2022-09-21T04:05:34;5.20;99.90
9466;DHT22;4771;48.726;9.006;2022-09-21T04:08:01;5.20;99.90
9466;DHT22;4771;48.726;9.006;2022-09-21T04:10:30;5.30;99.90
9466;DHT22;4771;48.726;9.006;2022-09-21T04:12:59;5.30;99.90
9466;DHT22;4771;48.726;9.006;2022-09-21T04:15:27;5.30;99.90
9466;DHT22;4771;48.726;9.006;2022-09-21T04:17:55;5.30;99.90
9466;DHT22;4771;48.726;9.006;2022-09-21T04:20:23;5.20;99.90
9466;DHT22;4771;48.726;9.006;2022-09-21T04:22:51;5.20;99.90
9466;DHT22;4771;48.726;9.006;2022-09-21T04:25:18;5.30;99.90
9466;DHT22;4771;48.726;9.006;2022-09-21T04:27:46;5.40;99.90
9466;DHT22;4771;48.726;9.006;2022-09-21T04:30:14;5.40;99.90
9466;DHT22;4771;48.726;9.006;2022-09-21T04:32:42;5.40;99.90
9466;DHT22;4771;48.726;9.006;2022-09-21T04:35:09;5.40;99.90
9466;DHT22;4771;48.726;9.006;2022-09-21T04:37:36;5.40;99.90
9466;DHT22;4771;48.726;9.006;2022-09-21T04:40:04;5.30;99.90
9466;DHT22;4771;48.726;9.006;2022-09-21T04:42:31;5.20;99.90
9466;DHT22;4771;48.726;9.006;2022-09-21T04:45:00;5.20;99.90
9466;DHT22;4771;48.726;9.006;2022-09-21T04:47:29;5.20;99.90
9466;DHT22;4771;48.726;9.006;2022-09-21T04:49:56;5.10;99.90
9466;DHT22;4771;48.726;9.006;2022-09-21T04:52:23;5.10;99.90
9466;DHT22;4771;48.726;9.006;2022-09-21T04:54:50;5.10;99.90
9466;DHT22;4771;48.726;9.006;2022-09-21T04:57:17;5.10;99.90
9466;DHT22;4771;48.726;9.006;2022-09-21T04:59:44;5.20;99.90
9466;DHT22;4771;48.726;9.006;2022-09-21T05:02:13;5.30;99.90
9466;DHT22;4771;48.726;9.006;2022-09-21T05:04:40;5.20;99.90
9466;DHT22;4771;48.726;9.006;2022-09-21T05:07:06;5.20;99.90
9466;DHT22;4771;48.726;9.006;2022-09-21T05:09:33;5.10;99.90
9466;DHT22;4771;48.726;9.006;2022-09-21T05:12:18;5.10;99.90
9466;DHT22;4771;48.726;9.006;2022-09-21T05:14:45;5.10;99.90
9466;DHT22;4771;48.726;9.006;2022-09-21T05:17:13;5.10;99.90
9466;DHT22;4771;48.726;9.006;2022-09-21T05:19:40;5.20;99.90
9466;DHT22;4771;48.726;9.006;2022-09-21T05:22:07;5.30;99.90
9466;DHT22;4771;48.726;9.006;2022-09-21T05:24:34;5.20;99.90
9466;DHT22;4771;48.726;9.006;2022-09-21T05:27:01;5.20;99.90
9466;DHT22;4771;48.726;9.006;2022-09-21T05:29:29;5.20;99.90
9466;DHT22;4771;48.726;9.006;2022-09-21T05:32:02;5.20;99.90
9466;DHT22;4771;48.726;9.006;2022-09-21T05:34:44;5.30;99.90
9466;DHT22;4771;48.726;9.006;2022-09-21T05:37:30;5.30;99.90
9466;DHT22;4771;48.726;9.006;2022-09-21T05:40:03;5.30;99.90
9466;DHT22;4771;48.726;9.006;2022-09-21T05:42:30;5.30;99.90
9466;DHT22;4771;48.726;9.006;2022-09-21T05:44:58;5.30;99.90
9466;DHT22;4771;48.726;9.006;2022-09-21T05:47:32;5.40;99.90
9466;DHT22;4771;48.726;9.006;2022-09-21T05:50:16;5.40;99.90
9466;DHT22;4771;48.726;9.006;2022-09-21T05:52:50;5.50;99.90
9466;DHT22;4771;48.726;9.006;2022-09-21T05:55:25;5.50;99.90
9466;DHT22;4771;48.726;9.006;2022-09-21T05:58:02;5.50;99.90
9466;DHT22;4771;48.726;9.006;2022-09-21T06:00:38;5.50;99.90
9466;DHT22;4771;48.726;9.006;2022-09-21T06:03:26;5.60;99.90
9466;DHT22;4771;48.726;9.006;2022-09-21T06:05:55;5.60;99.90
9466;DHT22;4771;48.726;9.006;2022-09-21T06:08:22;5.60;99.90
9466;DHT22;4771;48.726;9.006;2022-09-21T06:10:50;5.50;99.90
9466;DHT22;4771;48.726;9.006;2022-09-21T06:13:17;5.60;99.90
9466;DHT22;4771;48.726;9.006;2022-09-21T06:15:44;5.60;99.90
9466;DHT22;4771;48.726;9.006;2022-09-21T06:18:11;5.60;99.90
9466;DHT22;4771;48.726;9.006;2022-09-21T06:20:38;5.70;99.90
9466;DHT22;4771;48.726;9.006;2022-09-21T06:23:09;5.80;99.90
9466;DHT22;4771;48.726;9.006;2022-09-21T06:25:36;5.80;99.90
9466;DHT22;4771;48.726;9.006;2022-09-21T06:28:03;5.90;99.90
9466;DHT22;4771;48.726;9.006;2022-09-21T06:30:30;5.90;99.90
9466;DHT22;4771;48.726;9.006;2022-09-21T06:32:59;5.90;99.90
9466;DHT22;4771;48.726;9.006;2022-09-21T06:35:29;5.90;99.90
9466;DHT22;4771;48.726;9.006;2022-09-21T06:37:58;6.10;99.90
9466;DHT22;4771;48.726;9.006;2022-09-21T06:40:27;6.20;99.90
9466;DHT22;4771;48.726;9.006;2022-09-21T06:42:55;6.20;99.90
9466;DHT22;4771;48.726;9.006;2022-09-21T06:45:23;6.30;99.90
9466;DHT22;4771;48.726;9.006;2022-09-21T06:47:51;6.40;99.90
9466;DHT22;4771;48.726;9.006;2022-09-21T06:50:18;6.50;99.90
9466;DHT22;4771;48.726;9.006;2022-09-21T06:52:45;6.60;99.90
9466;DHT22;4771;48.726;9.006;2022-09-21T06:55:13;6.80;99.90
9466;DHT22;4771;48.726;9.006;2022-09-21T06:57:42;6.90;99.90
9466;DHT22;4771;48.726;9.006;2022-09-21T07:00:11;7.00;99.90
9466;DHT22;4771;48.726;9.006;2022-09-21T07:02:41;7.20;99.90
9466;DHT22;4771;48.726;9.006;2022-09-21T07:05:09;7.20;99.90
9466;DHT22;4771;48.726;9.006;2022-09-21T07:07:35;7.30;99.90
9466;DHT22;4771;48.726;9.006;2022-09-21T07:10:03;7.40;99.90
9466;DHT22;4771;48.726;9.006;2022-09-21T07:12:32;7.50;99.90
9466;DHT22;4771;48.726;9.006;2022-09-21T07:15:01;7.70;99.90
9466;DHT22;4771;48.726;9.006;2022-09-21T07:17:31;7.80;99.90
9466;DHT22;4771;48.726;9.006;2022-09-21T07:19:58;7.80;99.90
9466;DHT22;4771;48.726;9.006;2022-09-21T07:22:28;7.90;99.90
9466;DHT22;4771;48.726;9.006;2022-09-21T07:24:55;8.00;99.90
9466;DHT22;4771;48.726;9.006;2022-09-21T07:27:22;8.20;99.90
9466;DHT22;4771;48.726;9.006;2022-09-21T07:29:49;8.30;99.90
9466;DHT22;4771;48.726;9.006;2022-09-21T07:32:18;8.50;99.90
9466;DHT22;4771;48.726;9.006;2022-09-21T07:34:45;8.70;99.90
9466;DHT22;4771;48.726;9.006;2022-09-21T07:37:13;8.80;99.90
9466;DHT22;4771;48.726;9.006;2022-09-21T07:39:40;8.90;99.90
9466;DHT22;4771;48.726;9.006;2022-09-21T07:42:08;9.10;99.90
9466;DHT22;4771;48.726;9.006;2022-09-21T07:44:35;9.30;99.90
9466;DHT22;4771;48.726;9.006;2022-09-21T07:47:02;9.40;99.90
9466;DHT22;4771;48.726;9.006;2022-09-21T07:49:30;9.60;99.90
9466;DHT22;4771;48.726;9.006;2022-09-21T07:51:57;9.70;99.90
9466;DHT22;4771;48.726;9.006;2022-09-21T07:54:24;9.90;99.90
9466;DHT22;4771;48.726;9.006;2022-09-21T07:56:51;10.00;99.90
9466;DHT22;4771;48.726;9.006;2022-09-21T07:59:31;10.10;99.90
9466;DHT22;4771;48.726;9.006;2022-09-21T08:01:59;10.20;99.90
9466;DHT22;4771;48.726;9.006;2022-09-21T08:04:26;10.30;99.90
9466;DHT22;4771;48.726;9.006;2022-09-21T08:06:54;10.40;99.90
9466;DHT22;4771;48.726;9.006;2022-09-21T08:09:21;10.50;99.90
9466;DHT22;4771;48.726;9.006;2022-09-21T08:11:48;10.60;99.90
9466;DHT22;4771;48.726;9.006;2022-09-21T08:14:16;10.80;99.90
9466;DHT22;4771;48.726;9.006;2022-09-21T08:16:45;10.90;99.90
9466;DHT22;4771;48.726;9.006;2022-09-21T08:19:13;11.00;99.90
9466;DHT22;4771;48.726;9.006;2022-09-21T08:21:40;11.10;99.90
9466;DHT22;4771;48.726;9.006;2022-09-21T08:24:09;11.20;99.90
9466;DHT22;4771;48.726;9.006;2022-09-21T08:26:36;11.40;99.90
9466;DHT22;4771;48.726;9.006;2022-09-21T08:29:04;11.40;99.90
9466;DHT22;4771;48.726;9.006;2022-09-21T08:31:32;11.40;99.90
9466;DHT22;4771;48.726;9.006;2022-09-21T08:33:59;11.60;99.90
9466;DHT22;4771;48.726;9.006;2022-09-21T08:36:26;11.70;99.90
9466;DHT22;4771;48.726;9.006;2022-09-21T08:38:53;11.80;99.90
9466;DHT22;4771;48.726;9.006;2022-09-21T08:41:34;11.90;99.90
9466;DHT22;4771;48.726;9.006;2022-09-21T08:44:10;12.00;99.90
9466;DHT22;4771;48.726;9.006;2022-09-21T08:46:40;12.10;99.90
9466;DHT22;4771;48.726;9.006;2022-09-21T08:49:12;12.20;99.90
9466;DHT22;4771;48.726;9.006;2022-09-21T08:51:46;12.30;99.90
9466;DHT22;4771;48.726;9.006;2022-09-21T08:54:18;12.30;99.90
9466;DHT22;4771;48.726;9.006;2022-09-21T08:56:48;12.50;99.90
9466;DHT22;4771;48.726;9.006;2022-09-21T08:59:15;12.70;99.90
9466;DHT22;4771;48.726;9.006;2022-09-21T09:01:54;12.80;99.90
9466;DHT22;4771;48.726;9.006;2022-09-21T09:04:45;12.80;99.90
9466;DHT22;4771;48.726;9.006;2022-09-21T09:07:28;13.00;99.90
9466;DHT22;4771;48.726;9.006;2022-09-21T09:10:06;13.10;99.90
9466;DHT22;4771;48.726;9.006;2022-09-21T09:12:48;13.40;99.90
9466;DHT22;4771;48.726;9.006;2022-09-21T09:15:36;13.60;99.90
9466;DHT22;4771;48.726;9.006;2022-09-21T09:18:10;13.70;99.90
9466;DHT22;4771;48.726;9.006;2022-09-21T09:20:44;13.70;99.90
9466;DHT22;4771;48.726;9.006;2022-09-21T09:23:19;13.80;99.90
9466;DHT22;4771;48.726;9.006;2022-09-21T09:25:50;14.00;99.90
9466;DHT22;4771;48.726;9.006;2022-09-21T09:28:28;14.10;99.90
9466;DHT22;4771;48.726;9.006;2022-09-21T09:30:59;14.10;99.90
9466;DHT22;4771;48.726;9.006;2022-09-21T09:33:38;14.00;99.90
9466;DHT22;4771;48.726;9.006;2022-09-21T09:36:10;14.10;99.90
9466;DHT22;4771;48.726;9.006;2022-09-21T09:38:40;14.10;99.90
9466;DHT22;4771;48.726;9.006;2022-09-21T09:41:33;14.10;99.90
9466;DHT22;4771;48.726;9.006;2022-09-21T09:44:18;14.00;99.90
9466;DHT22;4771;48.726;9.006;2022-09-21T09:46:59;13.90;99.90
9466;DHT22;4771;48.726;9.006;2022-09-21T09:49:35;13.80;99.90
9466;DHT22;4771;48.726;9.006;2022-09-21T09:52:04;13.80;99.90
9466;DHT22;4771;48.726;9.006;2022-09-21T09:54:34;13.90;99.90
9466;DHT22;4771;48.726;9.006;2022-09-21T09:57:03;14.20;99.90
9466;DHT22;4771;48.726;9.006;2022-09-21T09:59:35;14.50;99.90
9466;DHT22;4771;48.726;9.006;2022-09-21T10:02:05;14.60;99.90
9466;DHT22;4771;48.726;9.006;2022-09-21T10:04:33;14.60;99.90
9466;DHT22;4771;48.726;9.006;2022-09-21T10:07:00;14.50;99.90
9466;DHT22;4771;48.726;9.006;2022-09-21T10:09:29;14.30;99.90
9466;DHT22;4771;48.726;9.006;2022-09-21T10:11:59;14.30;99.90
9466;DHT22;4771;48.726;9.006;2022-09-21T10:14:30;14.40;99.90
9466;DHT22;4771;48.726;9.006;2022-09-21T10:17:15;14.60;99.90
9466;DHT22;4771;48.726;9.006;2022-09-21T10:19:43;14.60;99.90
9466;DHT22;4771;48.726;9.006;2022-09-21T10:22:15;14.70;99.90
9466;DHT22;4771;48.726;9.006;2022-09-21T10:24:45;14.80;99.90
9466;DHT22;4771;48.726;9.006;2022-09-21T10:27:18;14.90;99.90
9466;DHT22;4771;48.726;9.006;2022-09-21T10:29:48;15.00;99.90
9466;DHT22;4771;48.726;9.006;2022-09-21T10:32:22;15.00;99.90
9466;DHT22;4771;48.726;9.006;2022-09-21T10:35:13;15.40;99.90
9466;DHT22;4771;48.726;9.006;2022-09-21T10:37:43;15.60;99.90
9466;DHT22;4771;48.726;9.006;2022-09-21T10:40:30;15.90;99.90
9466;DHT22;4771;48.726;9.006;2022-09-21T10:43:01;15.90;97.80
9466;DHT22;4771;48.726;9.006;2022-09-21T10:45:29;16.10;99.10
9466;DHT22;4771;48.726;9.006;2022-09-21T10:48:06;16.40;98.20
9466;DHT22;4771;48.726;9.006;2022-09-21T10:50:36;16.80;96.70
9466;DHT22;4771;48.726;9.006;2022-09-21T10:53:11;17.20;95.40
9466;DHT22;4771;48.726;9.006;2022-09-21T10:55:42;17.50;92.60
9466;DHT22;4771;48.726;9.006;2022-09-21T10:58:10;17.80;93.10
9466;DHT22;4771;48.726;9.006;2022-09-21T11:00:41;18.40;89.20
9466;DHT22;4771;48.726;9.006;2022-09-21T11:03:37;18.80;82.50
9466;DHT22;4771;48.726;9.006;2022-09-21T11:06:11;19.20;76.20
9466;DHT22;4771;48.726;9.006;2022-09-21T11:08:44;19.90;76.10
9466;DHT22;4771;48.726;9.006;2022-09-21T11:11:34;21.00;73.40
9466;DHT22;4771;48.726;9.006;2022-09-21T11:14:12;22.30;66.10
9466;DHT22;4771;48.726;9.006;2022-09-21T11:16:45;23.50;55.70
9466;DHT22;4771;48.726;9.006;2022-09-21T11:19:19;24.50;49.80
9466;DHT22;4771;48.726;9.006;2022-09-21T11:22:04;25.00;45.80
9466;DHT22;4771;48.726;9.006;2022-09-21T11:24:39;25.30;41.40
9466;DHT22;4771;48.726;9.006;2022-09-21T11:27:16;24.60;40.90
9466;DHT22;4771;48.726;9.006;2022-09-21T11:29:53;24.30;42.70
9466;DHT22;4771;48.726;9.006;2022-09-21T11:32:36;24.30;41.70
9466;DHT22;4771;48.726;9.006;2022-09-21T11:35:22;23.80;41.50
9466;DHT22;4771;48.726;9.006;2022-09-21T11:38:04;22.50;41.60
9466;DHT22;4771;48.726;9.006;2022-09-21T11:40:54;21.60;43.10
9466;DHT22;4771;48.726;9.006;2022-09-21T11:43:38;21.70;45.50
9466;DHT22;4771;48.726;9.006;2022-09-21T11:46:18;21.90;43.10
9466;DHT22;4771;48.726;9.006;2022-09-21T11:49:05;21.10;43.00
9466;DHT22;4771;48.726;9.006;2022-09-21T11:51:47;21.20;44.70
9466;DHT22;4771;48.726;9.006;2022-09-21T11:54:49;20.90;45.80
9466;DHT22;4771;48.726;9.006;2022-09-21T11:57:22;20.10;45.70
9466;DHT22;4771;48.726;9.006;2022-09-21T12:00:09;19.70;48.00
9466;DHT22;4771;48.726;9.006;2022-09-21T12:06:09;21.80;44.40
9466;DHT22;4771;48.726;9.006;2022-09-21T12:08:52;22.90;43.70
9466;DHT22;4771;48.726;9.006;2022-09-21T12:11:38;24.60;42.60
9466;DHT22;4771;48.726;9.006;2022-09-21T12:14:14;25.10;36.30
9466;DHT22;4771;48.726;9.006;2022-09-21T12:16:51;23.90;37.20
9466;DHT22;4771;48.726;9.006;2022-09-21T12:19:26;22.50;40.40
9466;DHT22;4771;48.726;9.006;2022-09-21T12:22:01;21.00;42.30
9466;DHT22;4771;48.726;9.006;2022-09-21T12:24:35;20.00;46.10
9466;DHT22;4771;48.726;9.006;2022-09-21T12:27:09;19.30;47.30
9466;DHT22;4771;48.726;9.006;2022-09-21T12:29:39;18.70;49.00
9466;DHT22;4771;48.726;9.006;2022-09-21T12:32:21;18.90;52.10
9466;DHT22;4771;48.726;9.006;2022-09-21T12:34:54;19.90;49.60
9466;DHT22;4771;48.726;9.006;2022-09-21T12:37:25;20.80;47.70
9466;DHT22;4771;48.726;9.006;2022-09-21T12:40:01;20.80;46.00
9466;DHT22;4771;48.726;9.006;2022-09-21T12:42:36;20.40;45.90
9466;DHT22;4771;48.726;9.006;2022-09-21T12:45:13;19.90;45.70
9466;DHT22;4771;48.726;9.006;2022-09-21T12:47:48;19.30;47.00
9466;DHT22;4771;48.726;9.006;2022-09-21T12:50:21;18.80;48.20
9466;DHT22;4771;48.726;9.006;2022-09-21T12:52:52;18.40;49.00
9466;DHT22;4771;48.726;9.006;2022-09-21T12:55:33;18.20;49.20
9466;DHT22;4771;48.726;9.006;2022-09-21T12:58:06;18.00;49.40
9466;DHT22;4771;48.726;9.006;2022-09-21T13:00:40;17.80;51.20
9466;DHT22;4771;48.726;9.006;2022-09-21T13:03:13;17.70;52.00
9466;DHT22;4771;48.726;9.006;2022-09-21T13:05:55;17.40;52.40
9466;DHT22;4771;48.726;9.006;2022-09-21T13:08:34;17.20;53.10
9466;DHT22;4771;48.726;9.006;2022-09-21T13:11:05;16.80;54.60
9466;DHT22;4771;48.726;9.006;2022-09-21T13:13:38;16.60;55.30
9466;DHT22;4771;48.726;9.006;2022-09-21T13:16:06;16.50;55.80
9466;DHT22;4771;48.726;9.006;2022-09-21T13:18:54;16.40;55.50
9466;DHT22;4771;48.726;9.006;2022-09-21T13:21:24;16.30;56.30
9466;DHT22;4771;48.726;9.006;2022-09-21T13:23:55;16.20;57.50
9466;DHT22;4771;48.726;9.006;2022-09-21T13:26:38;16.10;56.50
9466;DHT22;4771;48.726;9.006;2022-09-21T13:29:25;16.10;57.90
9466;DHT22;4771;48.726;9.006;2022-09-21T13:31:56;16.10;56.50
9466;DHT22;4771;48.726;9.006;2022-09-21T13:34:28;16.10;55.30
9466;DHT22;4771;48.726;9.006;2022-09-21T13:40:29;16.30;55.80
9466;DHT22;4771;48.726;9.006;2022-09-21T13:43:16;16.20;57.10
9466;DHT22;4771;48.726;9.006;2022-09-21T13:45:53;16.20;56.40
9466;DHT22;4771;48.726;9.006;2022-09-21T13:48:21;16.30;57.30
9466;DHT22;4771;48.726;9.006;2022-09-21T13:50:59;16.40;56.50
9466;DHT22;4771;48.726;9.006;2022-09-21T13:53:32;16.50;58.20
9466;DHT22;4771;48.726;9.006;2022-09-21T13:56:05;16.60;57.90
9466;DHT22;4771;48.726;9.006;2022-09-21T13:58:40;16.70;59.40
9466;DHT22;4771;48.726;9.006;2022-09-21T14:01:15;16.80;57.40
9466;DHT22;4771;48.726;9.006;2022-09-21T14:03:45;16.60;56.70
9466;DHT22;4771;48.726;9.006;2022-09-21T14:06:16;16.60;57.60
9466;DHT22;4771;48.726;9.006;2022-09-21T14:08:51;16.60;57.00
9466;DHT22;4771;48.726;9.006;2022-09-21T14:11:26;16.40;56.40
9466;DHT22;4771;48.726;9.006;2022-09-21T14:14:06;16.20;57.70
9466;DHT22;4771;48.726;9.006;2022-09-21T14:17:02;16.10;59.40
9466;DHT22;4771;48.726;9.006;2022-09-21T14:20:03;16.00;58.30
9466;DHT22;4771;48.726;9.006;2022-09-21T14:22:42;15.90;59.80
9466;DHT22;4771;48.726;9.006;2022-09-21T14:25:26;15.90;61.00
9466;DHT22;4771;48.726;9.006;2022-09-21T14:27:58;15.90;58.70
9466;DHT22;4771;48.726;9.006;2022-09-21T14:30:30;15.90;57.50
9466;DHT22;4771;48.726;9.006;2022-09-21T14:33:15;15.90;58.70
9466;DHT22;4771;48.726;9.006;2022-09-21T14:35:45;15.80;58.30
9466;DHT22;4771;48.726;9.006;2022-09-21T14:38:18;15.70;58.30
9466;DHT22;4771;48.726;9.006;2022-09-21T14:40:47;15.60;58.70
9466;DHT22;4771;48.726;9.006;2022-09-21T14:43:19;15.60;59.30
9466;DHT22;4771;48.726;9.006;2022-09-21T14:46:00;15.60;59.70
9466;DHT22;4771;48.726;9.006;2022-09-21T14:48:36;15.70;60.70
9466;DHT22;4771;48.726;9.006;2022-09-21T14:51:11;15.70;60.00
9466;DHT22;4771;48.726;9.006;2022-09-21T14:53:59;15.60;59.10
9466;DHT22;4771;48.726;9.006;2022-09-21T14:56:36;15.60;59.70
9466;DHT22;4771;48.726;9.006;2022-09-21T14:59:17;15.60;57.70
9466;DHT22;4771;48.726;9.006;2022-09-21T15:01:56;15.50;56.10
9466;DHT22;4771;48.726;9.006;2022-09-21T15:04:30;15.40;56.30
9466;DHT22;4771;48.726;9.006;2022-09-21T15:07:07;15.40;57.00
9466;DHT22;4771;48.726;9.006;2022-09-21T15:10:20;15.40;57.00
9466;DHT22;4771;48.726;9.006;2022-09-21T15:13:15;15.30;58.70
9466;DHT22;4771;48.726;9.006;2022-09-21T15:15:56;15.30;59.10
9466;DHT22;4771;48.726;9.006;2022-09-21T15:18:27;15.30;60.00
9466;DHT22;4771;48.726;9.006;2022-09-21T15:20:56;15.30;62.20
9466;DHT22;4771;48.726;9.006;2022-09-21T15:23:27;15.40;63.70
9466;DHT22;4771;48.726;9.006;2022-09-21T15:25:57;15.40;62.30
9466;DHT22;4771;48.726;9.006;2022-09-21T15:28:26;15.40;64.90
9466;DHT22;4771;48.726;9.006;2022-09-21T15:30:56;15.40;61.50
9466;DHT22;4771;48.726;9.006;2022-09-21T15:33:24;15.30;61.90
9466;DHT22;4771;48.726;9.006;2022-09-21T15:36:05;15.20;60.00
9466;DHT22;4771;48.726;9.006;2022-09-21T15:38:47;15.00;60.70
9466;DHT22;4771;48.726;9.006;2022-09-21T15:41:38;14.90;60.50
9466;DHT22;4771;48.726;9.006;2022-09-21T15:44:12;14.80;62.90
9466;DHT22;4771;48.726;9.006;2022-09-21T15:46:40;14.80;62.90
9466;DHT22;4771;48.726;9.006;2022-09-21T15:49:11;14.70;63.90
9466;DHT22;4771;48.726;9.006;2022-09-21T15:51:41;14.70;62.00
9466;DHT22;4771;48.726;9.006;2022-09-21T15:54:24;14.70;64.70
9466;DHT22;4771;48.726;9.006;2022-09-21T15:56:52;14.70;61.90
9466;DHT22;4771;48.726;9.006;2022-09-21T15:59:20;14.60;60.70
9466;DHT22;4771;48.726;9.006;2022-09-21T16:01:49;14.50;59.50
9466;DHT22;4771;48.726;9.006;2022-09-21T16:04:19;14.50;61.20
9466;DHT22;4771;48.726;9.006;2022-09-21T16:06:57;14.50;61.90
9466;DHT22;4771;48.726;9.006;2022-09-21T16:09:40;14.40;64.90
9466;DHT22;4771;48.726;9.006;2022-09-21T16:12:37;14.40;62.70
9466;DHT22;4771;48.726;9.006;2022-09-21T16:15:08;14.40;62.70
9466;DHT22;4771;48.726;9.006;2022-09-21T16:17:52;14.40;63.70
9466;DHT22;4771;48.726;9.006;2022-09-21T16:20:21;14.40;63.50
9466;DHT22;4771;48.726;9.006;2022-09-21T16:22:51;14.30;63.20
9466;DHT22;4771;48.726;9.006;2022-09-21T16:25:25;14.30;64.30
9466;DHT22;4771;48.726;9.006;2022-09-21T16:27:56;14.20;64.30
9466;DHT22;4771;48.726;9.006;2022-09-21T16:30:45;14.00;65.60
9466;DHT22;4771;48.726;9.006;2022-09-21T16:33:42;14.00;65.20
9466;DHT22;4771;48.726;9.006;2022-09-21T16:36:37;14.00;66.00
9466;DHT22;4771;48.726;9.006;2022-09-21T16:39:10;14.00;67.30
9466;DHT22;4771;48.726;9.006;2022-09-21T16:41:40;14.00;69.10
9466;DHT22;4771;48.726;9.006;2022-09-21T16:44:12;13.90;70.20
9466;DHT22;4771;48.726;9.006;2022-09-21T16:46:40;13.90;66.70
9466;DHT22;4771;48.726;9.006;2022-09-21T16:49:11;13.80;68.80
9466;DHT22;4771;48.726;9.006;2022-09-21T16:51:43;13.70;67.80
9466;DHT22;4771;48.726;9.006;2022-09-21T16:54:12;13.80;71.90